sensor_id;sensor_type;location;lat;lon;timestamp;P1;durP1;ratioP1;P2;durP2;ratioP2
46719;SDS011;32452;51.382;-0.002;2022-11-03T00:00:49;12.27;;;2.10;;
46719;SDS011;32452;51.382;-0.002;2022-11-03T00:03:35;14.77;;;3.20;;
46719;SDS011;32452;51.382;-0.002;2022-11-03T00:06:20;9.35;;;3.15;;
46719;SDS011;32452;51.382;-0.002;2022-11-03T00:09:07;9.23;;;2.45;;
46719;SDS011;32452;51.382;-0.002;2022-11-03T00:11:54;10.23;;;1.95;;
46719;SDS011;32452;51.382;-0.002;2022-11-03T00:14:39;9.82;;;1.80;;
46719;SDS011;32452;51.382;-0.002;2022-11-03T00:17:25;9.70;;;2.88;;
46719;SDS011;32452;51.382;-0.002;2022-11-03T00:20:10;8.63;;;2.20;;
46719;SDS011;32452;51.382;-0.002;2022-11-03T00:22:56;11.63;;;2.00;;
46719;SDS011;32452;51.382;-0.002;2022-11-03T00:25:41;9.00;;;1.73;;
46719;SDS011;32452;51.382;-0.002;2022-11-03T00:28:29;6.68;;;1.48;;
46719;SDS011;32452;51.382;-0.002;2022-11-03T00:31:17;8.80;;;1.63;;
46719;SDS011;32452;51.382;-0.002;2022-11-03T00:34:04;6.43;;;1.48;;
46719;SDS011;32452;51.382;-0.002;2022-11-03T00:36:51;7.80;;;1.85;;
46719;SDS011;32452;51.382;-0.002;2022-11-03T00:39:36;8.55;;;1.42;;
46719;SDS011;32452;51.382;-0.002;2022-11-03T00:42:22;8.63;;;1.40;;
46719;SDS011;32452;51.382;-0.002;2022-11-03T00:45:08;6.60;;;1.35;;
46719;SDS011;32452;51.382;-0.002;2022-11-03T00:47:54;10.70;;;1.50;;
46719;SDS011;32452;51.382;-0.002;2022-11-03T00:51:09;8.35;;;1.35;;
46719;SDS011;32452;51.382;-0.002;2022-11-03T00:54:08;5.45;;;1.10;;
46719;SDS011;32452;51.382;-0.002;2022-11-03T00:56:54;6.70;;;0.93;;
46719;SDS011;32452;51.382;-0.002;2022-11-03T00:59:39;6.05;;;0.98;;
46719;SDS011;32452;51.382;-0.002;2022-11-03T01:02:25;8.70;;;1.15;;
46719;SDS011;32452;51.382;-0.002;2022-11-03T01:05:11;4.70;;;1.10;;
46719;SDS011;32452;51.382;-0.002;2022-11-03T01:08:15;3.08;;;0.60;;
46719;SDS011;32452;51.382;-0.002;2022-11-03T01:11:07;5.25;;;1.77;;
46719;SDS011;32452;51.382;-0.002;2022-11-03T01:14:17;2.60;;;0.73;;
46719;SDS011;32452;51.382;-0.002;2022-11-03T01:17:06;4.18;;;1.17;;
46719;SDS011;32452;51.382;-0.002;2022-11-03T01:19:53;6.07;;;1.55;;
46719;SDS011;32452;51.382;-0.002;2022-11-03T01:22:39;3.53;;;0.70;;
46719;SDS011;32452;51.382;-0.002;2022-11-03T01:25:24;5.65;;;0.73;;
46719;SDS011;32452;51.382;-0.002;2022-11-03T01:28:10;5.15;;;0.90;;
46719;SDS011;32452;51.382;-0.002;2022-11-03T01:30:55;3.67;;;0.82;;
46719;SDS011;32452;51.382;-0.002;2022-11-03T01:33:53;2.35;;;0.63;;
46719;SDS011;32452;51.382;-0.002;2022-11-03T01:36:40;4.20;;;0.40;;
46719;SDS011;32452;51.382;-0.002;2022-11-03T01:39:25;4.03;;;0.80;;
46719;SDS011;32452;51.382;-0.002;2022-11-03T01:42:11;2.53;;;0.60;;
46719;SDS011;32452;51.382;-0.002;2022-11-03T01:44:58;3.40;;;0.47;;
46719;SDS011;32452;51.382;-0.002;2022-11-03T01:47:44;2.70;;;0.50;;
46719;SDS011;32452;51.382;-0.002;2022-11-03T01:50:30;3.33;;;0.50;;
46719;SDS011;32452;51.382;-0.002;2022-11-03T01:53:16;1.10;;;0.35;;
46719;SDS011;32452;51.382;-0.002;2022-11-03T01:56:02;6.22;;;1.20;;
46719;SDS011;32452;51.382;-0.002;2022-11-03T01:58:48;3.55;;;0.82;;
46719;SDS011;32452;51.382;-0.002;2022-11-03T02:01:37;4.60;;;0.63;;
46719;SDS011;32452;51.382;-0.002;2022-11-03T02:04:25;2.97;;;1.05;;
46719;SDS011;32452;51.382;-0.002;2022-11-03T02:10:01;8.63;;;0.90;;
46719;SDS011;32452;51.382;-0.002;2022-11-03T02:12:47;9.90;;;1.88;;
46719;SDS011;32452;51.382;-0.002;2022-11-03T02:15:33;3.08;;;0.80;;
46719;SDS011;32452;51.382;-0.002;2022-11-03T02:18:21;5.28;;;0.80;;
46719;SDS011;32452;51.382;-0.002;2022-11-03T02:21:47;4.28;;;0.77;;
46719;SDS011;32452;51.382;-0.002;2022-11-03T02:24:36;4.20;;;0.50;;
46719;SDS011;32452;51.382;-0.002;2022-11-03T02:27:38;10.25;;;0.93;;
46719;SDS011;32452;51.382;-0.002;2022-11-03T02:30:25;5.97;;;0.93;;
46719;SDS011;32452;51.382;-0.002;2022-11-03T02:33:18;4.68;;;1.00;;
46719;SDS011;32452;51.382;-0.002;2022-11-03T02:36:25;5.85;;;1.02;;
46719;SDS011;32452;51.382;-0.002;2022-11-03T02:42:03;5.50;;;2.40;;
46719;SDS011;32452;51.382;-0.002;2022-11-03T02:44:51;5.20;;;0.93;;
46719;SDS011;32452;51.382;-0.002;2022-11-03T02:47:39;9.73;;;1.85;;
46719;SDS011;32452;51.382;-0.002;2022-11-03T02:50:29;5.63;;;1.10;;
46719;SDS011;32452;51.382;-0.002;2022-11-03T02:53:16;13.98;;;1.23;;
46719;SDS011;32452;51.382;-0.002;2022-11-03T02:56:06;8.57;;;1.30;;
46719;SDS011;32452;51.382;-0.002;2022-11-03T02:58:58;10.18;;;1.45;;
46719;SDS011;32452;51.382;-0.002;2022-11-03T03:02:05;10.80;;;1.90;;
46719;SDS011;32452;51.382;-0.002;2022-11-03T03:09:23;8.65;;;2.03;;
46719;SDS011;32452;51.382;-0.002;2022-11-03T03:12:11;17.30;;;2.20;;
46719;SDS011;32452;51.382;-0.002;2022-11-03T03:15:01;17.73;;;2.72;;
46719;SDS011;32452;51.382;-0.002;2022-11-03T03:17:53;11.52;;;2.63;;
46719;SDS011;32452;51.382;-0.002;2022-11-03T03:21:06;16.10;;;2.95;;
46719;SDS011;32452;51.382;-0.002;2022-11-03T03:23:58;13.00;;;2.50;;
46719;SDS011;32452;51.382;-0.002;2022-11-03T03:26:53;13.02;;;3.30;;
46719;SDS011;32452;51.382;-0.002;2022-11-03T03:29:53;11.07;;;2.40;;
46719;SDS011;32452;51.382;-0.002;2022-11-03T03:32:45;15.93;;;3.40;;
46719;SDS011;32452;51.382;-0.002;2022-11-03T03:35:32;20.52;;;2.88;;
46719;SDS011;32452;51.382;-0.002;2022-11-03T03:38:22;14.30;;;3.25;;
46719;SDS011;32452;51.382;-0.002;2022-11-03T03:41:12;11.50;;;2.47;;
46719;SDS011;32452;51.382;-0.002;2022-11-03T03:44:07;13.82;;;3.10;;
46719;SDS011;32452;51.382;-0.002;2022-11-03T03:46:56;13.05;;;2.92;;
46719;SDS011;32452;51.382;-0.002;2022-11-03T03:50:09;10.45;;;2.35;;
46719;SDS011;32452;51.382;-0.002;2022-11-03T03:52:59;13.27;;;2.42;;
46719;SDS011;32452;51.382;-0.002;2022-11-03T03:55:46;12.52;;;2.65;;
46719;SDS011;32452;51.382;-0.002;2022-11-03T03:58:34;14.10;;;2.53;;
46719;SDS011;32452;51.382;-0.002;2022-11-03T04:01:20;12.93;;;1.65;;
46719;SDS011;32452;51.382;-0.002;2022-11-03T04:04:05;5.38;;;3.03;;
46719;SDS011;32452;51.382;-0.002;2022-11-03T04:06:51;11.85;;;2.60;;
46719;SDS011;32452;51.382;-0.002;2022-11-03T04:09:57;10.18;;;2.00;;
46719;SDS011;32452;51.382;-0.002;2022-11-03T04:12:42;17.85;;;4.72;;
46719;SDS011;32452;51.382;-0.002;2022-11-03T04:15:47;8.38;;;2.05;;
46719;SDS011;32452;51.382;-0.002;2022-11-03T04:18:33;12.45;;;2.88;;
46719;SDS011;32452;51.382;-0.002;2022-11-03T04:21:37;5.40;;;2.00;;
46719;SDS011;32452;51.382;-0.002;2022-11-03T04:27:32;9.80;;;2.33;;
46719;SDS011;32452;51.382;-0.002;2022-11-03T04:30:19;8.82;;;1.85;;
46719;SDS011;32452;51.382;-0.002;2022-11-03T04:33:21;7.85;;;1.90;;
46719;SDS011;32452;51.382;-0.002;2022-11-03T04:36:11;10.65;;;2.55;;
46719;SDS011;32452;51.382;-0.002;2022-11-03T04:39:12;10.23;;;2.08;;
46719;SDS011;32452;51.382;-0.002;2022-11-03T04:42:01;7.95;;;2.10;;
46719;SDS011;32452;51.382;-0.002;2022-11-03T04:44:48;8.38;;;1.90;;
46719;SDS011;32452;51.382;-0.002;2022-11-03T04:47:33;10.55;;;1.65;;
46719;SDS011;32452;51.382;-0.002;2022-11-03T04:50:21;5.78;;;1.90;;
46719;SDS011;32452;51.382;-0.002;2022-11-03T04:53:11;6.78;;;1.17;;
46719;SDS011;32452;51.382;-0.002;2022-11-03T04:55:59;5.60;;;1.15;;
46719;SDS011;32452;51.382;-0.002;2022-11-03T04:58:51;4.53;;;1.00;;
46719;SDS011;32452;51.382;-0.002;2022-11-03T05:01:37;9.10;;;2.75;;
46719;SDS011;32452;51.382;-0.002;2022-11-03T05:04:23;3.65;;;1.08;;
46719;SDS011;32452;51.382;-0.002;2022-11-03T05:07:21;10.80;;;1.85;;
46719;SDS011;32452;51.382;-0.002;2022-11-03T05:10:06;7.75;;;1.45;;
46719;SDS011;32452;51.382;-0.002;2022-11-03T05:12:58;12.30;;;1.38;;
46719;SDS011;32452;51.382;-0.002;2022-11-03T05:15:45;7.03;;;1.10;;
46719;SDS011;32452;51.382;-0.002;2022-11-03T05:18:34;5.05;;;1.33;;
46719;SDS011;32452;51.382;-0.002;2022-11-03T05:21:22;7.07;;;1.02;;
46719;SDS011;32452;51.382;-0.002;2022-11-03T05:24:12;5.97;;;1.30;;
46719;SDS011;32452;51.382;-0.002;2022-11-03T05:26:59;6.03;;;1.70;;
46719;SDS011;32452;51.382;-0.002;2022-11-03T05:29:44;6.63;;;1.20;;
46719;SDS011;32452;51.382;-0.002;2022-11-03T05:32:31;7.65;;;1.50;;
46719;SDS011;32452;51.382;-0.002;2022-11-03T05:35:19;8.63;;;1.55;;
46719;SDS011;32452;51.382;-0.002;2022-11-03T05:38:10;10.10;;;1.77;;
46719;SDS011;32452;51.382;-0.002;2022-11-03T05:40:58;14.20;;;1.65;;
46719;SDS011;32452;51.382;-0.002;2022-11-03T05:43:45;14.50;;;2.20;;
46719;SDS011;32452;51.382;-0.002;2022-11-03T05:46:37;12.35;;;1.80;;
46719;SDS011;32452;51.382;-0.002;2022-11-03T05:49:23;10.60;;;2.08;;
46719;SDS011;32452;51.382;-0.002;2022-11-03T05:52:12;15.88;;;2.70;;
46719;SDS011;32452;51.382;-0.002;2022-11-03T05:55:03;9.43;;;1.90;;
46719;SDS011;32452;51.382;-0.002;2022-11-03T05:57:49;11.00;;;2.03;;
46719;SDS011;32452;51.382;-0.002;2022-11-03T06:00:36;10.65;;;2.15;;
46719;SDS011;32452;51.382;-0.002;2022-11-03T06:03:33;15.68;;;2.20;;
46719;SDS011;32452;51.382;-0.002;2022-11-03T06:09:17;14.80;;;2.47;;
46719;SDS011;32452;51.382;-0.002;2022-11-03T06:12:06;15.55;;;3.35;;
46719;SDS011;32452;51.382;-0.002;2022-11-03T06:14:57;21.83;;;2.80;;
46719;SDS011;32452;51.382;-0.002;2022-11-03T06:17:43;14.98;;;2.90;;
46719;SDS011;32452;51.382;-0.002;2022-11-03T06:20:28;21.23;;;4.68;;
46719;SDS011;32452;51.382;-0.002;2022-11-03T06:23:14;15.73;;;3.78;;
46719;SDS011;32452;51.382;-0.002;2022-11-03T06:26:01;8.30;;;1.55;;
46719;SDS011;32452;51.382;-0.002;2022-11-03T06:28:47;7.15;;;1.27;;
46719;SDS011;32452;51.382;-0.002;2022-11-03T06:31:33;5.18;;;0.88;;
46719;SDS011;32452;51.382;-0.002;2022-11-03T06:34:30;3.55;;;0.80;;
46719;SDS011;32452;51.382;-0.002;2022-11-03T06:42:55;1.95;;;0.60;;
46719;SDS011;32452;51.382;-0.002;2022-11-03T06:45:49;2.20;;;0.55;;
46719;SDS011;32452;51.382;-0.002;2022-11-03T06:48:40;6.32;;;1.20;;
46719;SDS011;32452;51.382;-0.002;2022-11-03T06:51:26;7.15;;;1.30;;
46719;SDS011;32452;51.382;-0.002;2022-11-03T06:54:12;6.57;;;1.65;;
46719;SDS011;32452;51.382;-0.002;2022-11-03T06:56:58;9.13;;;1.73;;
46719;SDS011;32452;51.382;-0.002;2022-11-03T06:59:43;9.75;;;2.22;;
46719;SDS011;32452;51.382;-0.002;2022-11-03T07:05:54;13.18;;;2.28;;
46719;SDS011;32452;51.382;-0.002;2022-11-03T07:08:45;9.73;;;1.85;;
46719;SDS011;32452;51.382;-0.002;2022-11-03T07:11:34;12.02;;;2.08;;
46719;SDS011;32452;51.382;-0.002;2022-11-03T07:14:31;12.07;;;2.28;;
46719;SDS011;32452;51.382;-0.002;2022-11-03T07:17:17;6.15;;;1.80;;
46719;SDS011;32452;51.382;-0.002;2022-11-03T07:20:11;10.75;;;1.95;;
46719;SDS011;32452;51.382;-0.002;2022-11-03T07:22:59;5.68;;;1.33;;
46719;SDS011;32452;51.382;-0.002;2022-11-03T07:25:48;11.07;;;1.92;;
46719;SDS011;32452;51.382;-0.002;2022-11-03T07:28:38;8.15;;;2.10;;
46719;SDS011;32452;51.382;-0.002;2022-11-03T07:31:24;7.88;;;1.77;;
46719;SDS011;32452;51.382;-0.002;2022-11-03T07:34:11;7.80;;;1.92;;
46719;SDS011;32452;51.382;-0.002;2022-11-03T07:37:04;6.53;;;1.35;;
46719;SDS011;32452;51.382;-0.002;2022-11-03T07:39:52;6.35;;;1.55;;
46719;SDS011;32452;51.382;-0.002;2022-11-03T07:42:38;7.28;;;1.15;;
46719;SDS011;32452;51.382;-0.002;2022-11-03T07:48:26;9.43;;;1.83;;
46719;SDS011;32452;51.382;-0.002;2022-11-03T07:51:27;5.43;;;1.23;;
46719;SDS011;32452;51.382;-0.002;2022-11-03T07:59:49;7.93;;;1.27;;
46719;SDS011;32452;51.382;-0.002;2022-11-03T08:05:33;5.00;;;1.33;;
46719;SDS011;32452;51.382;-0.002;2022-11-03T08:08:18;6.25;;;1.10;;
46719;SDS011;32452;51.382;-0.002;2022-11-03T08:11:04;6.72;;;1.45;;
46719;SDS011;32452;51.382;-0.002;2022-11-03T08:13:50;7.22;;;1.40;;
46719;SDS011;32452;51.382;-0.002;2022-11-03T08:16:36;4.45;;;1.17;;
46719;SDS011;32452;51.382;-0.002;2022-11-03T08:19:23;5.93;;;1.52;;
46719;SDS011;32452;51.382;-0.002;2022-11-03T08:22:08;5.03;;;1.00;;
46719;SDS011;32452;51.382;-0.002;2022-11-03T08:24:55;6.47;;;1.10;;
46719;SDS011;32452;51.382;-0.002;2022-11-03T08:27:40;4.30;;;1.00;;
46719;SDS011;32452;51.382;-0.002;2022-11-03T08:30:26;3.17;;;1.15;;
46719;SDS011;32452;51.382;-0.002;2022-11-03T08:33:12;4.60;;;1.38;;
46719;SDS011;32452;51.382;-0.002;2022-11-03T08:35:58;5.57;;;1.50;;
46719;SDS011;32452;51.382;-0.002;2022-11-03T08:38:44;4.88;;;1.30;;
46719;SDS011;32452;51.382;-0.002;2022-11-03T08:41:30;5.40;;;1.23;;
46719;SDS011;32452;51.382;-0.002;2022-11-03T08:44:16;6.75;;;1.27;;
46719;SDS011;32452;51.382;-0.002;2022-11-03T08:47:01;4.65;;;1.10;;
46719;SDS011;32452;51.382;-0.002;2022-11-03T08:49:47;3.45;;;1.40;;
46719;SDS011;32452;51.382;-0.002;2022-11-03T08:52:33;7.03;;;1.25;;
46719;SDS011;32452;51.382;-0.002;2022-11-03T08:55:18;10.90;;;3.63;;
46719;SDS011;32452;51.382;-0.002;2022-11-03T08:58:04;6.38;;;1.55;;
46719;SDS011;32452;51.382;-0.002;2022-11-03T09:00:50;5.78;;;1.40;;
46719;SDS011;32452;51.382;-0.002;2022-11-03T09:03:36;7.47;;;2.17;;
46719;SDS011;32452;51.382;-0.002;2022-11-03T09:06:22;5.57;;;1.63;;
46719;SDS011;32452;51.382;-0.002;2022-11-03T09:09:08;3.42;;;1.23;;
46719;SDS011;32452;51.382;-0.002;2022-11-03T09:12:13;5.40;;;1.40;;
46719;SDS011;32452;51.382;-0.002;2022-11-03T09:14:58;4.70;;;1.20;;
46719;SDS011;32452;51.382;-0.002;2022-11-03T09:17:44;4.00;;;0.98;;
46719;SDS011;32452;51.382;-0.002;2022-11-03T09:20:30;3.13;;;1.23;;
46719;SDS011;32452;51.382;-0.002;2022-11-03T09:23:15;4.95;;;1.48;;
46719;SDS011;32452;51.382;-0.002;2022-11-03T09:26:01;4.05;;;1.40;;
46719;SDS011;32452;51.382;-0.002;2022-11-03T09:28:46;6.72;;;1.50;;
46719;SDS011;32452;51.382;-0.002;2022-11-03T09:31:33;7.38;;;1.88;;
46719;SDS011;32452;51.382;-0.002;2022-11-03T09:34:18;7.80;;;1.70;;
46719;SDS011;32452;51.382;-0.002;2022-11-03T09:37:04;7.22;;;1.60;;
46719;SDS011;32452;51.382;-0.002;2022-11-03T09:39:49;6.78;;;1.98;;
46719;SDS011;32452;51.382;-0.002;2022-11-03T09:42:35;8.35;;;2.00;;
46719;SDS011;32452;51.382;-0.002;2022-11-03T09:45:22;4.22;;;1.73;;
46719;SDS011;32452;51.382;-0.002;2022-11-03T09:48:08;12.65;;;2.28;;
46719;SDS011;32452;51.382;-0.002;2022-11-03T09:50:55;7.07;;;1.65;;
46719;SDS011;32452;51.382;-0.002;2022-11-03T09:53:41;5.53;;;1.75;;
46719;SDS011;32452;51.382;-0.002;2022-11-03T09:56:27;9.23;;;1.70;;
46719;SDS011;32452;51.382;-0.002;2022-11-03T09:59:14;8.35;;;1.67;;
46719;SDS011;32452;51.382;-0.002;2022-11-03T10:02:05;7.18;;;1.48;;
46719;SDS011;32452;51.382;-0.002;2022-11-03T10:05:07;6.75;;;1.90;;
46719;SDS011;32452;51.382;-0.002;2022-11-03T10:07:58;6.75;;;1.65;;
46719;SDS011;32452;51.382;-0.002;2022-11-03T10:10:47;3.53;;;1.48;;
46719;SDS011;32452;51.382;-0.002;2022-11-03T10:13:35;7.88;;;1.50;;
46719;SDS011;32452;51.382;-0.002;2022-11-03T10:16:22;5.75;;;1.55;;
46719;SDS011;32452;51.382;-0.002;2022-11-03T10:19:11;4.22;;;1.92;;
46719;SDS011;32452;51.382;-0.002;2022-11-03T10:21:58;6.00;;;1.65;;
46719;SDS011;32452;51.382;-0.002;2022-11-03T10:24:43;9.23;;;1.40;;
46719;SDS011;32452;51.382;-0.002;2022-11-03T10:27:29;6.95;;;1.40;;
46719;SDS011;32452;51.382;-0.002;2022-11-03T10:30:15;5.13;;;1.27;;
46719;SDS011;32452;51.382;-0.002;2022-11-03T10:33:00;8.98;;;2.47;;
46719;SDS011;32452;51.382;-0.002;2022-11-03T10:35:46;3.17;;;1.40;;
46719;SDS011;32452;51.382;-0.002;2022-11-03T10:38:32;5.60;;;1.73;;
46719;SDS011;32452;51.382;-0.002;2022-11-03T10:41:25;6.75;;;1.50;;
46719;SDS011;32452;51.382;-0.002;2022-11-03T10:44:17;5.65;;;1.50;;
46719;SDS011;32452;51.382;-0.002;2022-11-03T10:47:03;5.97;;;1.70;;
46719;SDS011;32452;51.382;-0.002;2022-11-03T10:49:50;5.93;;;1.50;;
46719;SDS011;32452;51.382;-0.002;2022-11-03T10:52:38;3.72;;;0.98;;
46719;SDS011;32452;51.382;-0.002;2022-11-03T10:55:25;5.78;;;1.10;;
46719;SDS011;32452;51.382;-0.002;2022-11-03T10:58:11;4.53;;;1.25;;
46719;SDS011;32452;51.382;-0.002;2022-11-03T11:00:57;4.15;;;1.40;;
46719;SDS011;32452;51.382;-0.002;2022-11-03T11:03:43;5.40;;;1.25;;
46719;SDS011;32452;51.382;-0.002;2022-11-03T11:06:29;6.07;;;1.45;;
46719;SDS011;32452;51.382;-0.002;2022-11-03T11:09:22;6.75;;;2.00;;
46719;SDS011;32452;51.382;-0.002;2022-11-03T11:12:16;3.60;;;1.10;;
46719;SDS011;32452;51.382;-0.002;2022-11-03T11:15:52;8.23;;;1.50;;
46719;SDS011;32452;51.382;-0.002;2022-11-03T11:24:01;5.32;;;1.40;;
46719;SDS011;32452;51.382;-0.002;2022-11-03T11:26:46;5.55;;;1.55;;
46719;SDS011;32452;51.382;-0.002;2022-11-03T11:29:34;3.65;;;1.20;;
46719;SDS011;32452;51.382;-0.002;2022-11-03T11:44:52;4.22;;;1.30;;
46719;SDS011;32452;51.382;-0.002;2022-11-03T11:47:44;5.43;;;1.65;;
46719;SDS011;32452;51.382;-0.002;2022-11-03T11:50:35;4.83;;;1.43;;
46719;SDS011;32452;51.382;-0.002;2022-11-03T11:53:21;7.45;;;1.92;;
46719;SDS011;32452;51.382;-0.002;2022-11-03T11:56:15;5.15;;;2.28;;
46719;SDS011;32452;51.382;-0.002;2022-11-03T11:59:00;9.20;;;2.42;;
46719;SDS011;32452;51.382;-0.002;2022-11-03T12:01:49;8.75;;;2.28;;
46719;SDS011;32452;51.382;-0.002;2022-11-03T12:04:37;9.38;;;2.75;;
46719;SDS011;32452;51.382;-0.002;2022-11-03T12:07:32;8.23;;;2.45;;
46719;SDS011;32452;51.382;-0.002;2022-11-03T12:10:22;5.47;;;2.47;;
46719;SDS011;32452;51.382;-0.002;2022-11-03T12:13:32;9.27;;;2.80;;
46719;SDS011;32452;51.382;-0.002;2022-11-03T12:16:26;3.90;;;1.77;;
46719;SDS011;32452;51.382;-0.002;2022-11-03T12:25:31;7.07;;;2.50;;
46719;SDS011;32452;51.382;-0.002;2022-11-03T12:28:31;5.47;;;1.33;;
46719;SDS011;32452;51.382;-0.002;2022-11-03T12:31:18;4.47;;;1.58;;
46719;SDS011;32452;51.382;-0.002;2022-11-03T12:34:04;4.18;;;1.75;;
46719;SDS011;32452;51.382;-0.002;2022-11-03T12:36:49;3.65;;;1.42;;
46719;SDS011;32452;51.382;-0.002;2022-11-03T12:39:39;4.03;;;1.83;;
46719;SDS011;32452;51.382;-0.002;2022-11-03T12:42:25;10.68;;;1.92;;
46719;SDS011;32452;51.382;-0.002;2022-11-03T12:45:11;3.22;;;1.73;;
46719;SDS011;32452;51.382;-0.002;2022-11-03T12:47:57;8.43;;;2.00;;
46719;SDS011;32452;51.382;-0.002;2022-11-03T12:50:43;3.72;;;1.60;;
46719;SDS011;32452;51.382;-0.002;2022-11-03T12:53:28;4.10;;;1.30;;
46719;SDS011;32452;51.382;-0.002;2022-11-03T12:56:14;4.50;;;1.23;;
46719;SDS011;32452;51.382;-0.002;2022-11-03T12:59:00;5.28;;;1.15;;
46719;SDS011;32452;51.382;-0.002;2022-11-03T13:01:46;3.65;;;1.42;;
46719;SDS011;32452;51.382;-0.002;2022-11-03T13:04:32;6.28;;;1.30;;
46719;SDS011;32452;51.382;-0.002;2022-11-03T13:07:17;3.90;;;1.30;;
46719;SDS011;32452;51.382;-0.002;2022-11-03T13:10:11;4.03;;;1.48;;
46719;SDS011;32452;51.382;-0.002;2022-11-03T13:12:57;4.30;;;1.80;;
46719;SDS011;32452;51.382;-0.002;2022-11-03T13:15:43;5.32;;;1.73;;
46719;SDS011;32452;51.382;-0.002;2022-11-03T13:18:28;5.63;;;1.88;;
46719;SDS011;32452;51.382;-0.002;2022-11-03T13:21:14;2.95;;;1.30;;
46719;SDS011;32452;51.382;-0.002;2022-11-03T13:23:59;5.93;;;1.55;;
46719;SDS011;32452;51.382;-0.002;2022-11-03T13:26:45;6.50;;;1.83;;
46719;SDS011;32452;51.382;-0.002;2022-11-03T13:29:30;4.45;;;1.63;;
46719;SDS011;32452;51.382;-0.002;2022-11-03T13:32:19;5.32;;;1.67;;
46719;SDS011;32452;51.382;-0.002;2022-11-03T13:35:05;4.78;;;1.65;;
46719;SDS011;32452;51.382;-0.002;2022-11-03T13:37:57;4.60;;;1.92;;
46719;SDS011;32452;51.382;-0.002;2022-11-03T13:40:42;3.30;;;1.23;;
46719;SDS011;32452;51.382;-0.002;2022-11-03T13:43:48;3.40;;;0.90;;
46719;SDS011;32452;51.382;-0.002;2022-11-03T13:46:33;3.78;;;1.45;;
46719;SDS011;32452;51.382;-0.002;2022-11-03T13:49:19;4.57;;;1.40;;
46719;SDS011;32452;51.382;-0.002;2022-11-03T13:52:26;6.70;;;1.27;;
46719;SDS011;32452;51.382;-0.002;2022-11-03T13:55:11;4.60;;;1.10;;
46719;SDS011;32452;51.382;-0.002;2022-11-03T13:58:17;2.47;;;1.10;;
46719;SDS011;32452;51.382;-0.002;2022-11-03T14:01:22;8.30;;;1.55;;
46719;SDS011;32452;51.382;-0.002;2022-11-03T14:04:09;1.42;;;0.82;;
46719;SDS011;32452;51.382;-0.002;2022-11-03T14:07:14;3.30;;;1.20;;
46719;SDS011;32452;51.382;-0.002;2022-11-03T14:10:00;2.08;;;1.10;;
46719;SDS011;32452;51.382;-0.002;2022-11-03T14:12:48;4.32;;;1.30;;
46719;SDS011;32452;51.382;-0.002;2022-11-03T14:15:33;4.60;;;1.27;;
46719;SDS011;32452;51.382;-0.002;2022-11-03T14:18:18;6.10;;;1.60;;
46719;SDS011;32452;51.382;-0.002;2022-11-03T14:21:04;3.38;;;1.60;;
46719;SDS011;32452;51.382;-0.002;2022-11-03T14:23:50;6.57;;;2.15;;
46719;SDS011;32452;51.382;-0.002;2022-11-03T14:26:35;4.32;;;1.67;;
46719;SDS011;32452;51.382;-0.002;2022-11-03T14:29:26;5.05;;;1.80;;
46719;SDS011;32452;51.382;-0.002;2022-11-03T14:32:12;3.92;;;1.83;;
46719;SDS011;32452;51.382;-0.002;2022-11-03T14:34:57;6.93;;;2.00;;
46719;SDS011;32452;51.382;-0.002;2022-11-03T14:37:43;8.65;;;3.45;;
46719;SDS011;32452;51.382;-0.002;2022-11-03T14:40:29;5.18;;;2.10;;
46719;SDS011;32452;51.382;-0.002;2022-11-03T14:43:33;8.75;;;2.10;;
46719;SDS011;32452;51.382;-0.002;2022-11-03T14:46:19;7.85;;;1.75;;
46719;SDS011;32452;51.382;-0.002;2022-11-03T14:49:05;7.80;;;2.00;;
46719;SDS011;32452;51.382;-0.002;2022-11-03T14:51:50;7.78;;;2.13;;
46719;SDS011;32452;51.382;-0.002;2022-11-03T14:54:36;4.18;;;1.75;;
46719;SDS011;32452;51.382;-0.002;2022-11-03T14:57:21;8.23;;;3.15;;
46719;SDS011;32452;51.382;-0.002;2022-11-03T15:00:07;5.15;;;1.80;;
46719;SDS011;32452;51.382;-0.002;2022-11-03T15:02:54;8.07;;;2.45;;
46719;SDS011;32452;51.382;-0.002;2022-11-03T15:05:40;6.70;;;1.90;;
46719;SDS011;32452;51.382;-0.002;2022-11-03T15:08:28;5.10;;;2.45;;
46719;SDS011;32452;51.382;-0.002;2022-11-03T15:11:16;6.35;;;1.88;;
46719;SDS011;32452;51.382;-0.002;2022-11-03T15:14:01;6.30;;;2.05;;
46719;SDS011;32452;51.382;-0.002;2022-11-03T15:16:47;6.70;;;1.88;;
46719;SDS011;32452;51.382;-0.002;2022-11-03T15:19:33;5.18;;;1.88;;
46719;SDS011;32452;51.382;-0.002;2022-11-03T15:22:19;3.95;;;1.80;;
46719;SDS011;32452;51.382;-0.002;2022-11-03T15:25:04;4.15;;;1.67;;
46719;SDS011;32452;51.382;-0.002;2022-11-03T15:27:58;5.68;;;1.52;;
46719;SDS011;32452;51.382;-0.002;2022-11-03T15:30:44;8.60;;;2.05;;
46719;SDS011;32452;51.382;-0.002;2022-11-03T15:33:29;4.68;;;1.48;;
46719;SDS011;32452;51.382;-0.002;2022-11-03T15:36:15;5.00;;;1.75;;
46719;SDS011;32452;51.382;-0.002;2022-11-03T15:39:01;6.68;;;1.83;;
46719;SDS011;32452;51.382;-0.002;2022-11-03T15:41:47;8.10;;;2.08;;
46719;SDS011;32452;51.382;-0.002;2022-11-03T15:44:33;7.00;;;2.15;;
46719;SDS011;32452;51.382;-0.002;2022-11-03T15:47:18;6.55;;;1.70;;
46719;SDS011;32452;51.382;-0.002;2022-11-03T15:50:04;3.72;;;1.70;;
46719;SDS011;32452;51.382;-0.002;2022-11-03T15:52:51;5.07;;;1.80;;
46719;SDS011;32452;51.382;-0.002;2022-11-03T15:55:38;5.03;;;1.88;;
46719;SDS011;32452;51.382;-0.002;2022-11-03T15:58:23;6.78;;;1.88;;
46719;SDS011;32452;51.382;-0.002;2022-11-03T16:01:09;7.95;;;2.15;;
46719;SDS011;32452;51.382;-0.002;2022-11-03T16:03:54;5.43;;;1.80;;
46719;SDS011;32452;51.382;-0.002;2022-11-03T16:06:40;6.32;;;2.25;;
46719;SDS011;32452;51.382;-0.002;2022-11-03T16:09:45;5.75;;;2.08;;
46719;SDS011;32452;51.382;-0.002;2022-11-03T16:12:31;6.40;;;2.25;;
46719;SDS011;32452;51.382;-0.002;2022-11-03T16:15:17;7.38;;;1.98;;
46719;SDS011;32452;51.382;-0.002;2022-11-03T16:18:03;6.57;;;2.17;;
46719;SDS011;32452;51.382;-0.002;2022-11-03T16:20:51;6.80;;;2.10;;
46719;SDS011;32452;51.382;-0.002;2022-11-03T16:23:37;3.63;;;1.85;;
46719;SDS011;32452;51.382;-0.002;2022-11-03T16:26:22;7.35;;;2.53;;
46719;SDS011;32452;51.382;-0.002;2022-11-03T16:29:07;4.57;;;2.00;;
46719;SDS011;32452;51.382;-0.002;2022-11-03T16:31:53;8.15;;;2.70;;
46719;SDS011;32452;51.382;-0.002;2022-11-03T16:34:39;5.00;;;2.10;;
46719;SDS011;32452;51.382;-0.002;2022-11-03T16:37:24;7.38;;;2.65;;
46719;SDS011;32452;51.382;-0.002;2022-11-03T16:40:11;5.00;;;1.65;;
46719;SDS011;32452;51.382;-0.002;2022-11-03T16:43:03;6.40;;;2.22;;
46719;SDS011;32452;51.382;-0.002;2022-11-03T16:45:49;8.02;;;2.95;;
46719;SDS011;32452;51.382;-0.002;2022-11-03T16:48:34;7.88;;;2.88;;
46719;SDS011;32452;51.382;-0.002;2022-11-03T16:51:20;7.57;;;2.33;;
46719;SDS011;32452;51.382;-0.002;2022-11-03T16:54:06;8.05;;;2.10;;
46719;SDS011;32452;51.382;-0.002;2022-11-03T16:56:51;13.77;;;2.50;;
46719;SDS011;32452;51.382;-0.002;2022-11-03T16:59:38;7.85;;;3.13;;
46719;SDS011;32452;51.382;-0.002;2022-11-03T17:02:24;6.95;;;2.35;;
46719;SDS011;32452;51.382;-0.002;2022-11-03T17:05:13;6.25;;;2.20;;
46719;SDS011;32452;51.382;-0.002;2022-11-03T17:08:00;8.98;;;3.97;;
46719;SDS011;32452;51.382;-0.002;2022-11-03T17:10:46;5.85;;;2.50;;
46719;SDS011;32452;51.382;-0.002;2022-11-03T17:13:31;6.88;;;1.90;;
46719;SDS011;32452;51.382;-0.002;2022-11-03T17:16:17;5.90;;;2.10;;
46719;SDS011;32452;51.382;-0.002;2022-11-03T17:19:06;5.63;;;2.60;;
46719;SDS011;32452;51.382;-0.002;2022-11-03T17:21:51;6.85;;;2.65;;
46719;SDS011;32452;51.382;-0.002;2022-11-03T17:24:37;7.80;;;2.28;;
46719;SDS011;32452;51.382;-0.002;2022-11-03T17:27:24;5.53;;;1.92;;
46719;SDS011;32452;51.382;-0.002;2022-11-03T17:30:15;8.48;;;2.35;;
46719;SDS011;32452;51.382;-0.002;2022-11-03T17:33:05;7.55;;;2.47;;
46719;SDS011;32452;51.382;-0.002;2022-11-03T17:35:52;7.07;;;2.38;;
46719;SDS011;32452;51.382;-0.002;2022-11-03T17:38:37;8.70;;;2.10;;
46719;SDS011;32452;51.382;-0.002;2022-11-03T17:41:23;11.07;;;2.35;;